Luz De Mar — ECIJ — position and weather

sailwx.info

Track history (hours):
 
Tides and Currents Weather Stations Pressure Air Temp Water Temp Dewpoint Dewpoint Depression Visibility Wind Speed Wind Dir Waves Ship Positions

Luz De Mar

Last reported at 2016-May-31 09:12 UTC. Time now 2016-May-31 12:02 UTC.
Position N 36°08' W 005°26'.

Length 56 m; draft 6.7 m.

Type: SAR. MMSI: 224311000.

Date/timePositionNaut miles runAvg speedWind from/ knotsBaromVisibWave heightAir tempDewpointWater temp
2016-May-31 09:12N 36°08' W 005°26'0 0.0
2016-May-31 08:27N 36°08' W 005°26'0 0.0
2016-May-30 23:09N 36°08' W 005°26'0 0.0
2016-May-30 22:27N 36°08' W 005°26'0 0.0
2016-May-30 04:30N 36°08' W 005°26'0 0.0
2016-May-30 00:32N 36°08' W 005°26'0 0.0
2016-May-29 23:26N 36°08' W 005°26'0 0.0
2016-May-29 20:32N 36°08' W 005°26'0 0.0
2016-May-29 13:32N 36°08' W 005°26'0 0.0
2016-May-29 11:26N 36°08' W 005°26'0 0.0
2016-May-29 05:32N 36°08' W 005°26'0 0.0
2016-May-29 03:32N 36°08' W 005°26'0 0.0
2016-May-29 02:26N 36°08' W 005°26'0 0.0
2016-May-29 00:32N 36°08' W 005°26'0 0.0
2016-May-28 21:32N 36°08' W 005°26'0 0.0
2016-May-27 13:14N 36°08' W 005°26'0 0.0
2016-May-27 00:26N 36°08' W 005°26'0 0.0
2016-May-26 23:29N 36°08' W 005°26'0 0.0
2016-May-26 04:05N 36°08' W 005°26'0 0.0
2016-May-25 22:29N 36°08' W 005°26'0 0.0
2016-May-25 15:05N 36°08' W 005°26'0 0.0
2016-May-25 01:14N 36°08' W 005°26'0 0.0
2016-May-24 23:23N 36°08' W 005°26'0 0.0
2016-May-24 22:29N 36°08' W 005°26'0 0.0
2016-May-24 12:32N 36°08' W 005°26'0 0.0
2016-May-24 11:32N 36°08' W 005°26'0 0.0
2016-May-24 09:32N 36°08' W 005°26'2 0.2
2016-May-23 21:33N 36°06' W 005°24'2 2.4
2016-May-23 20:34N 36°04' W 005°24'1 0.9
2016-May-23 19:34N 36°03' W 005°24'6 5.7
2016-May-23 18:33N 36°08' W 005°26'3 0.5
2016-May-23 13:06N 36°10' W 005°23'1 1.4
2016-May-23 12:33N 36°09' W 005°23'2 2.2
2016-May-23 11:33N 36°07' W 005°24'2 2.3
2016-May-23 10:33N 36°05' W 005°24'2 2.1
2016-May-23 09:33N 36°03' W 005°22'6 5.2
2016-May-23 08:24N 36°08' W 005°26'0 0.0
2016-May-23 07:30N 36°08' W 005°26'  
Track history (hours):
 
Tides and Currents Weather Stations Pressure Air Temp Water Temp Dewpoint Dewpoint Depression Visibility Wind Speed Wind Dir Waves Ship Positions

Luz De Mar

Last reported at 2016-May-31 09:12 UTC. Time now 2016-May-31 12:02 UTC.
Position N 36°08' W 005°26'.

Length 56 m; draft 6.7 m.

Type: SAR. MMSI: 224311000.

Date/timePositionNaut miles runAvg speedWind from/ knotsBaromVisibWave heightAir tempDewpointWater temp
2016-May-31 09:12N 36°08' W 005°26'0 0.0
2016-May-31 08:27N 36°08' W 005°26'0 0.0
2016-May-30 23:09N 36°08' W 005°26'0 0.0
2016-May-30 22:27N 36°08' W 005°26'0 0.0
2016-May-30 04:30N 36°08' W 005°26'0 0.0
2016-May-30 00:32N 36°08' W 005°26'0 0.0
2016-May-29 23:26N 36°08' W 005°26'0 0.0
2016-May-29 20:32N 36°08' W 005°26'0 0.0
2016-May-29 13:32N 36°08' W 005°26'0 0.0
2016-May-29 11:26N 36°08' W 005°26'0 0.0
2016-May-29 05:32N 36°08' W 005°26'0 0.0
2016-May-29 03:32N 36°08' W 005°26'0 0.0
2016-May-29 02:26N 36°08' W 005°26'0 0.0
2016-May-29 00:32N 36°08' W 005°26'0 0.0
2016-May-28 21:32N 36°08' W 005°26'0 0.0
2016-May-27 13:14N 36°08' W 005°26'0 0.0
2016-May-27 00:26N 36°08' W 005°26'0 0.0
2016-May-26 23:29N 36°08' W 005°26'0 0.0
2016-May-26 04:05N 36°08' W 005°26'0 0.0
2016-May-25 22:29N 36°08' W 005°26'0 0.0
2016-May-25 15:05N 36°08' W 005°26'0 0.0
2016-May-25 01:14N 36°08' W 005°26'0 0.0
2016-May-24 23:23N 36°08' W 005°26'0 0.0
2016-May-24 22:29N 36°08' W 005°26'0 0.0
2016-May-24 12:32N 36°08' W 005°26'0 0.0
2016-May-24 11:32N 36°08' W 005°26'0 0.0
2016-May-24 09:32N 36°08' W 005°26'2 0.2
2016-May-23 21:33N 36°06' W 005°24'2 2.4
2016-May-23 20:34N 36°04' W 005°24'1 0.9
2016-May-23 19:34N 36°03' W 005°24'6 5.7
2016-May-23 18:33N 36°08' W 005°26'3 0.5
2016-May-23 13:06N 36°10' W 005°23'1 1.4
2016-May-23 12:33N 36°09' W 005°23'2 2.2
2016-May-23 11:33N 36°07' W 005°24'2 2.3
2016-May-23 10:33N 36°05' W 005°24'2 2.1
2016-May-23 09:33N 36°03' W 005°22'6 5.2
2016-May-23 08:24N 36°08' W 005°26'0 0.0
2016-May-23 07:30N 36°08' W 005°26'  

Dump ship's entire track history